Terminal Aerodrome Forecast
Issued by NWS Portland, OR

Home | Current Version | Previous Version | Text Only | Print | Product List | Glossary On
Versions: 1 2 3 4 5 6 7 8 9 10 11 12 13 14 15 16 17 18 19 20 21
000
FTUS46 KPQR 300520
TAFAST
TAF
KAST 300520Z 3006/0106 20013KT P6SM -RA BKN008 OVC015
     FM300800 26010KT P6SM -RA BKN015 OVC025
     FM301000 28007KT P6SM VCSH SCT015 BKN025
     FM301800 30012KT P6SM SCT025 BKN028
     FM010300 30005KT P6SM SCT030=

USA.gov is the U.S. government's official web portal to all federal, state and local government web resources and services.